Latest Coastal Weather Observations for Pirlangimpi (Garden Point)

IDD60701

Issued at 1:45 am CST Thursday 17 April 2014 (issued every 10 minutes, with the page automatically refreshed every 10 minutes)

About coastal observations | Map of coastal stations | Coastal observations for NT | Marine services | Other Formats
Station Details ID: 014142 Name: PIRLANGIMPI AIRPORT Lat: -11.40 Lon: 130.42 Height: 18.3 m
Data from the previous 72 hours. | See also: Recent months at Pirlangimpi (Garden Point)
Date/Time
CST
Temp

°C
Wind Pressure Rain
since 9am
mm
Weather Cloud Vis
km
Sea
Height
m
Swell
Dir
 
Speed
knots
Gust
knots
hPa Trend Height
m
Period
s
Dir
17/01:30am 23.9 NE 0 0 1009.7 - 22.2 - - - - - - -
17/01:00am 24.1 CALM 0 0 1010.0 - 22.2 - - - - - - -
17/12:30am 24.2 CALM 0 0 1010.3 - 22.2 - - - - - - -
17/12:00am 24.3 ENE 0 0 1010.5 - 22.2 - - - - - - -
 
Date/Time
CST
Temp

°C
Wind Pressure Rain
since 9am
mm
Weather Cloud Vis
km
Sea
Height
m
Swell
Dir
 
Speed
knots
Gust
knots
hPa Trend Height
m
Period
s
Dir
16/11:30pm 24.4 CALM 0 0 1010.4 - 22.2 - - - - - - -
16/11:00pm 24.5 CALM 0 0 1010.6 - 22.2 - - - - - - -
16/10:30pm 24.5 CALM 0 0 1010.6 - 22.2 - - - - - - -
16/10:00pm 24.6 CALM 0 0 1010.8 - 22.2 - - - - - - -
16/09:30pm 24.8 CALM 0 0 1010.4 - 22.2 - - - - - - -
16/09:00pm 25.0 CALM 0 0 1010.1 - 22.2 - - - - - - -
16/08:30pm 25.2 CALM 0 0 1009.7 - 22.2 - - - - - - -
16/08:00pm 25.3 CALM 0 0 1009.4 - 22.2 - - - - - - -
16/07:30pm 25.4 CALM 0 0 1009.0 - 22.2 - - - - - - -
16/07:00pm 25.7 CALM 0 0 1009.0 - 22.2 - - - - - - -
16/06:30pm 26.0 NW 1 2 1008.7 - 22.2 - - - - - - -
16/06:00pm 26.2 SSW 3 7 1008.5 - 22.2 - - - - - - -
16/05:30pm 26.4 N 1 4 1008.2 - 22.2 - - - - - - -
16/05:00pm 25.8 N 3 5 1007.9 - 22.2 - - - - - - -
16/04:30pm 25.6 NE 2 3 1007.9 - 22.2 - - - - - - -
16/04:00pm 25.1 ESE 6 10 1008.0 - 20.4 - - - - - - -
16/03:30pm 28.1 E 11 15 1007.8 - 0.8 - - - - - - -
16/03:00pm 33.1 SW 4 7 1007.5 - 0.0 - - - - - - -
16/02:30pm 32.8 SSW 6 9 1007.7 - 0.0 - - - - - - -
16/02:00pm 31.1 SSW 5 7 1008.2 - 0.0 - - - - - - -
16/01:30pm 32.2 SW 5 10 1008.4 - 0.0 - - - - - - -
16/01:00pm 32.1 S 3 8 1009.0 - 0.0 - - - - - - -
16/12:30pm 33.0 SSE 3 5 1009.5 - 0.0 - - - - - - -
16/12:00pm 32.7 SSE 5 8 1010.1 - 0.0 - - - - - - -
16/11:30am 33.1 SSE 5 6 1010.5 - 0.0 - - - - - - -
16/11:00am 33.0 E 5 9 1010.9 - 0.0 - - - - - - -
16/10:30am 32.2 E 4 6 1011.1 - 0.0 - - - - - - -
16/10:00am 31.3 E 4 8 1011.2 - 0.0 - - - - - - -
16/09:30am 29.8 S 3 5 1011.2 - 0.0 - - - - - - -
16/09:00am 28.1 SSE 3 4 1011.0 - 12.6 - - - - - - -
16/08:30am 26.4 SSE 2 2 1010.9 - 12.6 - - - - - - -
16/08:00am 25.7 SSE 1 2 1010.9 - 12.6 - - - - - - -
16/07:30am 25.2 SE 1 1 1010.6 - 12.6 - - - - - - -
16/07:00am 24.9 SSE 1 1 1010.4 - 12.6 - - - - - - -
16/06:30am 24.9 SSE 1 2 1010.0 - 12.6 - - - - - - -
16/06:00am 25.0 SE 2 4 1009.9 - 12.6 - - - - - - -
16/05:30am 25.1 SSE 2 4 1009.7 - 12.6 - - - - - - -
16/05:00am 24.8 SSE 2 4 1009.5 - 12.6 - - - - - - -
16/04:30am 24.4 CALM 0 0 1009.4 - 12.6 - - - - - - -
16/04:00am 24.1 CALM 0 0 1009.5 - 12.6 - - - - - - -
16/03:30am 24.1 CALM 0 0 1009.5 - 12.6 - - - - - - -
16/03:00am 24.1 CALM 0 0 1009.6 - 12.6 - - - - - - -
16/02:30am 24.2 SSE 1 2 1009.7 - 12.6 - - - - - - -
16/02:00am 24.3 CALM 0 0 1009.9 - 12.6 - - - - - - -
16/01:30am 24.4 CALM 0 0 1010.0 - 12.6 - - - - - - -
16/01:00am 24.9 NE 1 3 1010.4 - 12.6 - - - - - - -
16/12:30am 24.8 NE 3 5 1010.5 - 12.6 - - - - - - -
16/12:00am 24.6 NE 3 4 1010.6 - 12.6 - - - - - - -
 
Date/Time
CST
Temp

°C
Wind Pressure Rain
since 9am
mm
Weather Cloud Vis
km
Sea
Height
m
Swell
Dir
 
Speed
knots
Gust
knots
hPa Trend Height
m
Period
s
Dir
15/11:30pm 24.6 NE 2 3 1010.7 - 12.6 - - - - - - -
15/11:00pm 24.8 NE 2 3 1010.8 - 12.6 - - - - - - -
15/10:30pm 24.9 NE 2 3 1010.8 - 12.6 - - - - - - -
15/10:00pm 25.2 NE 2 3 1011.0 - 12.6 - - - - - - -
15/09:30pm 25.5 CALM 0 0 1010.7 - 12.6 - - - - - - -
15/09:00pm 25.7 CALM 0 0 1010.6 - 12.6 - - - - - - -
15/08:30pm 26.0 CALM 0 0 1010.6 - 12.6 - - - - - - -
15/08:00pm 26.1 CALM 0 0 1010.3 - 12.6 - - - - - - -
15/07:30pm 26.4 CALM 0 0 1009.7 - 12.4 - - - - - - -
15/07:00pm 26.4 CALM 0 1 1009.5 - 12.4 - - - - - - -
15/06:30pm 26.5 WSW 2 3 1009.0 - 12.4 - - - - - - -
15/06:00pm 26.7 N 3 5 1008.8 - 11.8 Rain - - - - - -
15/05:30pm 29.2 NE 2 8 1008.5 - 0.6 - - - - - - -
15/05:00pm 29.9 E 2 5 1008.2 - 0.6 - - - - - - -
15/04:30pm 29.9 SE 1 2 1007.9 - 0.6 - - - - - - -
15/04:00pm 30.5 ESE 3 6 1008.0 - 0.6 - - - - - - -
15/03:30pm 31.1 SE 4 7 1007.9 - 0.6 - - - - - - -
15/03:00pm 30.5 SE 5 8 1008.2 - 0.6 - - - - - - -
15/02:30pm 31.0 ESE 5 8 1008.4 - 0.6 - - - - - - -
15/02:00pm 27.6 S 4 5 1008.9 - 0.6 - - - - - - -
15/01:30pm 27.1 NE 3 4 1009.1 - 0.6 - - - - - - -
15/01:00pm 26.3 E 11 17 1009.8 - 0.4 - - - - - - -
15/12:53pm 27.5 E 12 19 1009.9 - 0.0 - - - - - - -
15/12:30pm 33.0 E 5 9 1009.8 - 0.0 - - - - - - -
15/12:00pm 32.7 ESE 4 6 1010.2 - 0.0 - - - - - - -
15/11:30am 32.7 E 6 9 1010.8 - 0.0 - - - - - - -
15/11:00am 31.9 ESE 7 10 1011.1 - 0.0 - - - - - - -
15/10:30am 31.9 ESE 5 7 1011.3 - 0.0 - - - - - - -
15/10:00am 31.3 SE 3 5 1011.5 - 0.0 - - - - - - -
15/09:30am 29.9 CALM 0 1 1011.2 - 0.0 - - - - - - -
15/09:00am 28.8 SSE 1 2 1010.9 - 55.0 - - - - - - -
15/08:30am 26.7 NE 3 4 1010.7 - 55.0 - - - - - - -
15/08:00am 25.7 NE 1 3 1010.6 - 55.0 - - - - - - -
15/07:30am 24.9 E 2 3 1010.3 - 55.0 - - - - - - -
15/07:00am 24.5 ENE 1 2 1010.1 - 55.0 - - - - - - -
15/06:30am 24.6 E 3 4 1009.8 - 55.0 - - - - - - -
15/06:00am 24.8 ESE 2 4 1009.7 - 55.0 - - - - - - -
15/05:30am 24.4 ESE 1 2 1009.4 - 55.0 - - - - - - -
15/05:00am 24.0 CALM 0 0 1009.4 - 55.0 - - - - - - -
15/04:30am 24.0 NE 2 3 1009.1 - 55.0 - - - - - - -
15/04:00am 24.1 ENE 2 3 1009.1 - 55.0 - - - - - - -
15/03:30am 24.1 CALM 0 0 1009.0 - 55.0 - - - - - - -
15/03:00am 24.2 CALM 0 2 1009.1 - 55.0 - - - - - - -
15/02:30am 24.4 CALM 0 0 1009.3 - 55.0 - - - - - - -
15/02:00am 24.6 CALM 0 0 1009.8 - 55.0 - - - - - - -
15/01:30am 24.6 CALM 0 0 1009.7 - 55.0 - - - - - - -
15/01:00am 24.6 CALM 0 0 1010.0 - 55.0 - - - - - - -
15/12:30am 24.9 CALM 0 0 1010.0 - 55.0 - - - - - - -
15/12:00am 24.8 CALM 0 0 1010.2 - 55.0 - - - - - - -
 
Date/Time
CST
Temp

°C
Wind Pressure Rain
since 9am
mm
Weather Cloud Vis
km
Sea
Height
m
Swell
Dir
 
Speed
knots
Gust
knots
hPa Trend Height
m
Period
s
Dir
14/11:30pm 24.7 SSE 1 2 1010.3 - 55.0 - - - - - - -
14/11:00pm 24.8 SSE 1 3 1010.5 - 55.0 - - - - - - -
14/10:30pm 25.0 CALM 0 2 1010.5 - 55.0 - - - - - - -
14/10:00pm 25.0 E 2 3 1010.8 - 55.0 - - - - - - -
14/09:30pm 24.7 ESE 3 4 1010.3 - 55.0 - - - - - - -
14/09:00pm 24.7 E 3 5 1010.2 - 55.0 - - - - - - -
14/08:30pm 24.7 NE 2 4 1009.7 - 55.0 - - - - - - -
14/08:00pm 25.0 E 2 4 1009.4 - 55.0 - - - - - - -
14/07:30pm 25.5 ESE 4 6 1009.1 - 55.0 - - - - - - -
14/07:00pm 25.6 E 2 4 1009.1 - 55.0 - - - - - - -
14/06:30pm 25.6 NE 2 4 1008.7 - 55.0 - - - - - - -
14/06:00pm 25.9 N 4 8 1008.5 - 55.0 - - - - - - -
14/05:30pm 26.5 CALM 0 1 1008.4 - 55.0 - - - - - - -
14/05:00pm 26.0 NNE 1 4 1008.0 - 55.0 - - - - - - -
14/04:30pm 25.6 NNE 2 3 1007.3 - 55.0 - - - - - - -
14/04:00pm 25.3 NW 1 2 1007.5 - 54.2 - - - - - - -
14/03:30pm 24.8 NNW 3 6 1007.5 - 52.4 - - - - - - -
14/03:00pm 24.7 WSW 4 8 1007.8 - 47.2 Rain - - - - - -
14/02:30pm 24.9 SW 10 14 1008.2 - 38.0 - - - - - - -
14/02:12pm 24.7 SSW 16 20 1008.4 - 15.6 - - - - - - -
14/02:00pm 27.6 SW 5 10 1008.3 - 0.2 - - - - - - -
14/01:30pm 31.2 N 3 5 1008.1 - 0.0 - - - - - - -
14/01:00pm 32.6 NNE 3 5 1008.6 - 0.0 - - - - - - -
14/12:30pm 32.5 NE 2 5 1008.9 - 0.0 - - - - - - -
14/12:00pm 32.9 NNE 2 5 1009.3 - 0.0 - - - - - - -
14/11:30am 32.1 NNE 3 6 1009.6 - 0.0 - - - - - - -
14/11:00am 32.1 ENE 2 5 1010.0 - 0.0 - - - - - - -
14/10:30am 31.1 E 4 6 1009.9 - 0.0 - - - - - - -
14/10:00am 30.3 SE 2 3 1010.0 - 0.0 - - - - - - -
14/09:30am 28.3 SE 1 3 1009.8 - 0.0 - - - - - - -
14/09:00am 27.7 E 1 2 1009.3 - 7.8 - - - - - - -
14/08:30am 26.3 CALM 0 1 1009.1 - 7.8 - - - - - - -
14/08:00am 25.6 CALM 0 0 1009.0 - 7.8 - - - - - - -
14/07:30am 24.5 NE 2 3 1008.6 - 7.8 - - - - - - -
14/07:00am 24.7 E 2 3 1008.7 - 7.8 - - - - - - -
14/06:30am 24.7 ESE 3 5 1008.2 - 7.8 - - - - - - -
14/06:00am 24.9 SSE 2 2 1008.2 - 7.8 - - - - - - -
14/05:30am 24.9 CALM 0 0 1008.4 - 7.8 - - - - - - -
14/05:00am 24.9 CALM 0 0 1008.4 - 7.8 - - - - - - -
14/04:30am 24.9 E 2 3 1008.0 - 7.8 - - - - - - -
14/04:00am 25.0 CALM 0 1 1008.3 - 7.8 - - - - - - -
14/03:30am 25.0 ESE 2 2 1008.4 - 7.8 - - - - - - -
14/03:00am 24.9 CALM 0 0 1008.6 - 7.8 - - - - - - -
14/02:30am 24.9 CALM 0 0 1008.7 - 7.8 - - - - - - -
14/02:00am 24.8 CALM 0 0 1009.1 - 7.8 - - - - - - -

Other Formats:

Comma delimited format used in spreadsheet applications
http://www.bom.gov.au/fwo/IDD60701/IDD60701.94119.axf

JavaScript Object Notation format (JSON) in row-major order
http://www.bom.gov.au/fwo/IDD60701/IDD60701.94119.json